Time;durP1;ratioP1;P1;durP2;ratioP2;P2;SDS_P1;SDS_P2;PMS_P1;PMS_P2;Temp;Humidity;BMP_temperature;BMP_pressure;BME280_temperature;BME280_humidity;BME280_pressure;Samples;Min_cycle;Max_cycle;Signal;HPM_P1;HPM_P2
2022/11/28 00:01:17;;;;;;;24.95;14.50;;;5.00;99.90;;;3.70;100.00;97192.94;5091156;28;20409;-69
2022/11/28 00:03:43;;;;;;;24.00;14.38;;;4.90;99.90;;;3.73;100.00;97196.94;5090027;28;20431;-70
2022/11/28 00:06:10;;;;;;;25.70;15.65;;;4.90;99.90;;;3.79;100.00;97191.66;5090926;28;20466;-70
2022/11/28 00:08:36;;;;;;;22.98;14.18;;;4.90;99.90;;;3.81;100.00;97196.69;5090663;28;20413;-71
2022/11/28 00:11:04;;;;;;;24.77;14.25;;;5.00;99.90;;;3.83;100.00;97205.16;5089205;28;20417;-70
2022/11/28 00:13:30;;;;;;;23.55;14.85;;;5.00;99.90;;;3.86;100.00;97210.75;5088808;28;20507;-70
2022/11/28 00:15:57;;;;;;;26.27;15.00;;;5.10;99.90;;;3.85;100.00;97201.28;5090674;28;20770;-70
2022/11/28 00:18:23;;;;;;;28.23;16.90;;;5.10;99.90;;;3.82;100.00;97199.09;5090703;28;20454;-70
2022/11/28 00:20:49;;;;;;;26.73;15.20;;;5.00;99.90;;;3.83;100.00;97197.28;5106171;28;20413;-70
2022/11/28 00:23:17;;;;;;;23.52;14.20;;;5.00;99.90;;;3.82;100.00;97196.50;5093537;28;20532;-70
2022/11/28 00:25:43;;;;;;;22.27;14.20;;;5.00;99.90;;;3.83;100.00;97192.81;5094359;28;20410;-70
2022/11/28 00:28:08;;;;;;;23.95;15.07;;;5.00;99.90;;;3.83;100.00;97184.19;5090403;28;20459;-70
2022/11/28 00:30:35;;;;;;;23.77;14.35;;;5.00;99.90;;;3.82;100.00;97183.41;5094381;28;20493;-70
2022/11/28 00:33:01;;;;;;;21.08;14.00;;;5.00;99.90;;;3.82;100.00;97185.22;5098458;28;20844;-69
2022/11/28 00:35:27;;;;;;;23.17;15.23;;;5.00;99.90;;;3.82;100.00;97185.22;5099406;28;20405;-70
2022/11/28 00:37:53;;;;;;;24.40;14.00;;;5.00;99.90;;;3.81;100.00;97180.97;5092799;28;20402;-70
2022/11/28 00:40:21;;;;;;;23.90;14.20;;;5.00;99.90;;;3.78;100.00;97179.59;5089539;28;20414;-70
2022/11/28 00:42:47;;;;;;;24.13;13.80;;;5.00;99.90;;;3.78;100.00;97184.00;5103883;28;20805;-70
2022/11/28 00:45:13;;;;;;;21.98;13.38;;;5.00;99.90;;;3.76;100.00;97168.50;5089207;28;20402;-70
2022/11/28 00:47:39;;;;;;;25.80;15.83;;;4.90;99.90;;;3.76;100.00;97167.75;5088867;28;20404;-70
2022/11/28 00:50:06;;;;;;;26.30;16.02;;;5.00;99.90;;;3.77;100.00;97171.94;5089464;28;20429;-69
2022/11/28 00:52:32;;;;;;;27.65;15.80;;;5.00;99.90;;;3.76;100.00;97175.59;5089760;28;20459;-70
2022/11/28 00:54:58;;;;;;;27.25;15.40;;;5.00;99.90;;;3.75;100.00;97169.56;5088821;28;20406;-70
2022/11/28 00:57:25;;;;;;;25.23;15.07;;;4.90;99.90;;;3.76;100.00;97165.13;5089670;28;20413;-70
2022/11/28 00:59:51;;;;;;;24.63;15.02;;;5.00;99.90;;;3.74;100.00;97162.72;5089689;28;20902;-71
2022/11/28 01:02:17;;;;;;;28.80;16.13;;;4.90;99.90;;;3.76;100.00;97165.13;5089662;28;20493;-70
2022/11/28 01:04:43;;;;;;;24.77;15.25;;;4.90;99.90;;;3.71;100.00;97150.03;5088948;28;20434;-71
2022/11/28 01:07:09;;;;;;;21.00;14.23;;;4.90;99.90;;;3.69;100.00;97154.69;5089701;28;20437;-70
2022/11/28 01:09:35;;;;;;;21.30;13.15;;;4.90;99.90;;;3.66;100.00;97149.09;5089979;28;20402;-69
2022/11/28 01:12:01;;;;;;;23.70;13.93;;;4.80;99.90;;;3.65;100.00;97148.28;5089487;28;20394;-70
2022/11/28 01:14:29;;;;;;;24.25;14.43;;;4.80;99.90;;;3.63;100.00;97142.44;5088979;28;20401;-70
2022/11/28 01:16:55;;;;;;;27.85;16.00;;;4.80;99.90;;;3.63;100.00;97145.06;5089993;28;20424;-69
2022/11/28 01:19:21;;;;;;;25.10;16.08;;;4.80;99.90;;;3.63;100.00;97141.66;5089690;28;20496;-68
2022/11/28 01:21:47;;;;;;;26.77;16.27;;;4.80;99.90;;;3.61;100.00;97141.06;5089463;28;20508;-71
2022/11/28 01:24:14;;;;;;;27.73;16.50;;;4.80;99.90;;;3.61;100.00;97136.63;5088719;28;20424;-71
2022/11/28 01:26:41;;;;;;;31.13;16.85;;;4.80;99.90;;;3.62;100.00;97145.28;5089332;28;20764;-71
2022/11/28 01:29:08;;;;;;;32.65;17.00;;;4.80;99.90;;;3.57;100.00;97145.13;5104980;28;20845;-71
2022/11/28 01:31:35;;;;;;;32.17;16.90;;;4.80;99.90;;;3.54;100.00;97141.09;5089388;28;20394;-71
2022/11/28 01:34:01;;;;;;;23.90;15.10;;;4.70;99.90;;;3.57;100.00;97132.84;5088732;28;20543;-70
2022/11/28 01:36:27;;;;;;;25.40;16.05;;;4.70;99.90;;;3.54;100.00;97135.88;5089480;28;20758;-69
2022/11/28 01:38:53;;;;;;;24.80;15.38;;;4.70;99.90;;;3.50;100.00;97150.41;5089326;28;20409;-71
2022/11/28 01:41:23;;;;;;;27.67;15.00;;;4.70;99.90;;;3.47;100.00;97148.19;5089227;28;20780;-71
2022/11/28 01:44:03;;;;;;;23.38;14.05;;;4.70;99.90;;;3.47;100.00;97145.56;5088271;28;20794;-69
2022/11/28 01:46:30;;;;;;;21.30;13.57;;;4.70;99.90;;;3.45;100.00;97151.03;5089630;28;20433;-69
2022/11/28 01:49:04;;;;;;;19.97;12.87;;;4.70;99.90;;;3.42;100.00;97150.66;5089132;28;20465;-69
2022/11/28 01:51:31;;;;;;;21.23;11.80;;;4.60;99.90;;;3.37;100.00;97140.84;5089169;28;20799;-70
2022/11/28 01:53:58;;;;;;;17.88;11.50;;;4.60;99.90;;;3.36;100.00;97126.16;5088283;28;20550;-69
2022/11/28 01:56:28;;;;;;;18.17;11.35;;;4.60;99.90;;;3.34;100.00;97122.94;5089176;28;20400;-70
2022/11/28 01:59:01;;;;;;;18.83;11.00;;;4.60;99.90;;;3.31;100.00;97127.75;5088921;28;20434;-71
2022/11/28 02:01:27;;;;;;;18.00;10.97;;;4.50;99.90;;;3.30;100.00;97123.56;5089059;28;20429;-69
2022/11/28 02:03:54;;;;;;;19.23;11.05;;;4.50;99.90;;;3.31;100.00;97125.97;5088055;28;20436;-69
2022/11/28 02:06:23;;;;;;;19.52;10.85;;;4.50;99.90;;;3.33;100.00;97120.53;5088889;28;20871;-69
2022/11/28 02:08:50;;;;;;;20.10;11.45;;;4.50;99.90;;;3.31;100.00;97115.50;5089179;28;20442;-68
2022/11/28 02:11:46;;;;;;;18.63;11.13;;;4.50;99.90;;;3.31;100.00;97115.50;5088774;28;20898;-69
2022/11/28 02:14:34;;;;;;;17.50;11.15;;;4.50;99.90;;;3.29;100.00;97101.84;5087875;28;21002;-70
2022/11/28 02:17:14;;;;;;;21.15;11.13;;;4.50;99.90;;;3.30;100.00;97098.22;5088890;28;20465;-68
2022/11/28 02:20:28;;;;;;;18.88;11.13;;;4.50;99.90;;;3.32;100.00;97097.97;5088961;28;20492;-69
2022/11/28 02:23:07;;;;;;;19.77;12.17;;;4.50;99.90;;;3.31;100.00;97091.94;5056108;28;20402;-70
2022/11/28 02:26:23;;;;;;;20.95;12.07;;;4.50;99.90;;;3.34;100.00;97085.50;5088954;28;20542;-69
2022/11/28 02:29:30;;;;;;;20.60;12.40;;;4.50;99.90;;;3.34;100.00;97070.59;5089027;28;20425;-69
2022/11/28 02:32:22;;;;;;;34.38;16.65;;;4.60;99.90;;;3.36;100.00;97073.03;5088679;28;20441;-69
2022/11/28 02:34:58;;;;;;;27.33;15.52;;;4.50;99.90;;;3.42;100.00;97062.50;5103240;28;20838;-70
2022/11/28 02:37:34;;;;;;;25.90;15.13;;;4.60;99.90;;;3.44;100.00;97057.06;5090819;28;20537;-69
2022/11/28 02:40:13;;;;;;;32.40;16.85;;;4.60;99.90;;;3.52;100.00;97043.72;5092285;28;20440;-71
2022/11/28 02:42:52;;;;;;;21.55;11.48;;;4.70;99.90;;;3.47;100.00;97052.19;5091860;28;20487;-70
2022/11/28 02:45:28;;;;;;;30.70;16.95;;;4.60;99.90;;;3.64;100.00;97059.50;5108004;28;21070;-70
2022/11/28 02:48:02;;;;;;;25.83;15.40;;;4.80;99.90;;;3.61;100.00;97062.56;5091998;28;20471;-70
2022/11/28 02:50:35;;;;;;;27.70;15.48;;;4.80;99.90;;;3.68;100.00;97064.09;5092408;28;20447;-69
2022/11/28 02:53:08;;;;;;;26.70;14.77;;;4.80;99.90;;;3.87;100.00;97072.78;5091692;28;20894;-69
2022/11/28 02:55:38;;;;;;;23.98;14.18;;;5.00;99.90;;;3.75;100.00;97067.47;5092171;28;20465;-70
2022/11/28 02:58:04;;;;;;;22.38;12.88;;;4.90;99.90;;;3.75;100.00;97051.75;5092246;28;20438;-69
2022/11/28 03:00:33;;;;;;;22.88;13.80;;;4.90;99.90;;;3.75;100.00;97022.97;5092117;28;20872;-69
2022/11/28 03:03:49;;;;;;;22.23;14.18;;;4.90;99.90;;;3.71;100.00;97039.31;5091075;28;20398;-69
2022/11/28 03:06:30;;;;;;;22.65;13.80;;;4.90;99.90;;;3.67;100.00;97022.44;5083885;28;20959;-71
2022/11/28 03:09:30;;;;;;;21.30;13.05;;;4.80;99.90;;;3.67;100.00;97028.47;5091717;28;20795;-71
2022/11/28 03:12:13;;;;;;;20.98;12.27;;;4.80;99.90;;;3.68;100.00;97029.28;5091389;28;20402;-71
2022/11/28 03:14:49;;;;;;;21.93;12.67;;;4.90;99.90;;;3.70;100.00;97038.50;5090827;28;20496;-70
2022/11/28 03:17:26;;;;;;;21.30;13.10;;;4.90;99.90;;;3.66;100.00;97021.63;5091355;28;20442;-71
2022/11/28 03:20:10;;;;;;;20.63;12.48;;;4.90;99.90;;;3.68;100.00;97013.56;5091278;28;20457;-71
2022/11/28 03:22:47;;;;;;;19.38;12.27;;;4.80;99.90;;;3.78;100.00;97027.75;5091459;28;21024;-69
2022/11/28 03:25:24;;;;;;;20.70;12.48;;;4.90;99.90;;;3.81;100.00;97021.28;5091500;28;20416;-69
2022/11/28 03:27:57;;;;;;;23.45;12.73;;;5.00;99.90;;;3.78;100.00;97025.13;5091397;28;20467;-69
2022/11/28 03:30:31;;;;;;;19.83;11.95;;;4.90;99.90;;;3.73;100.00;97029.41;5091440;28;20402;-70
2022/11/28 03:32:59;;;;;;;18.43;11.57;;;4.90;99.90;;;3.79;100.00;97018.09;5090687;28;20394;-69
2022/11/28 03:35:30;;;;;;;18.35;12.18;;;5.00;99.90;;;3.81;100.00;97029.16;5091050;28;20439;-69
2022/11/28 03:38:02;;;;;;;18.52;11.30;;;5.00;99.90;;;3.76;100.00;97021.16;5106986;28;20478;-69
2022/11/28 03:40:34;;;;;;;18.93;10.87;;;4.90;99.90;;;3.85;100.00;97014.59;5091255;28;20973;-69
2022/11/28 03:43:04;;;;;;;16.10;10.75;;;5.00;99.90;;;3.89;100.00;97026.25;5090302;28;20958;-70
2022/11/28 03:45:36;;;;;;;18.07;11.50;;;5.00;99.90;;;3.91;100.00;97024.19;5106938;28;20436;-70
2022/11/28 03:48:09;;;;;;;16.33;10.10;;;5.10;99.90;;;3.89;100.00;97010.53;5089987;28;20450;-70
2022/11/28 03:50:46;;;;;;;13.85;10.07;;;5.10;99.90;;;3.86;100.00;96997.88;5090809;28;20898;-70
2022/11/28 03:53:17;;;;;;;22.58;12.02;;;5.00;99.90;;;3.85;100.00;97006.75;5090216;28;20401;-70
2022/11/28 03:55:52;;;;;;;17.92;10.98;;;5.00;99.90;;;3.84;100.00;97005.94;5090862;28;20717;-69
2022/11/28 03:58:26;;;;;;;20.30;11.82;;;5.00;99.90;;;3.82;100.00;96999.34;5090943;28;20447;-70
2022/11/28 04:01:05;;;;;;;18.85;11.35;;;5.00;99.90;;;3.79;100.00;97002.38;5090858;28;20515;-69
2022/11/28 04:03:44;;;;;;;19.55;11.90;;;5.00;99.90;;;3.77;100.00;96999.16;5090113;28;20540;-70
2022/11/28 04:06:19;;;;;;;20.98;11.23;;;5.00;99.90;;;3.73;100.00;97001.44;5090945;28;20553;-70
2022/11/28 04:08:51;;;;;;;23.63;12.80;;;4.90;99.90;;;3.69;100.00;97002.06;5090714;28;20403;-70
2022/11/28 04:11:24;;;;;;;19.30;11.82;;;4.90;99.90;;;3.67;100.00;97002.31;5090767;28;20568;-70
2022/11/28 04:13:56;;;;;;;16.53;11.03;;;4.80;99.90;;;3.65;100.00;97009.56;5089726;28;20442;-70
2022/11/28 04:16:30;;;;;;;14.52;9.88;;;4.80;99.90;;;3.64;100.00;97013.19;5090604;28;20493;-69
2022/11/28 04:19:01;;;;;;;15.90;10.57;;;4.80;99.90;;;3.63;100.00;97008.97;5090390;28;20935;-69
2022/11/28 04:21:34;;;;;;;16.60;10.93;;;4.80;99.90;;;3.65;100.00;97011.38;5090526;28;20963;-70
2022/11/28 04:24:05;;;;;;;22.25;12.18;;;4.80;99.90;;;3.63;100.00;97008.16;5089446;28;20454;-69
2022/11/28 04:26:34;;;;;;;19.08;11.23;;;4.80;99.90;;;3.62;100.00;97009.97;5090565;28;20401;-70
2022/11/28 04:29:03;;;;;;;22.17;12.68;;;4.80;99.90;;;3.68;100.00;97009.16;5090155;28;20489;-70
2022/11/28 04:31:31;;;;;;;18.90;11.20;;;4.80;99.90;;;3.79;100.00;97012.84;5105874;28;20404;-70
2022/11/28 04:34:02;;;;;;;14.50;7.03;;;4.90;99.90;;;3.76;100.00;97000.97;5089476;28;20502;-69
2022/11/28 04:36:32;;;;;;;18.80;10.57;;;4.90;99.90;;;3.71;100.00;96993.00;5090308;28;20505;-69
2022/11/28 04:39:00;;;;;;;17.55;9.07;;;4.90;99.90;;;3.73;100.00;96996.19;5089821;28;20863;-69
2022/11/28 04:41:33;;;;;;;16.48;9.93;;;4.90;99.90;;;3.71;100.00;96997.41;5089749;28;20469;-68
2022/11/28 04:44:06;;;;;;;12.05;6.15;;;4.90;99.90;;;3.74;100.00;96992.56;5104772;28;20410;-69
2022/11/28 04:46:37;;;;;;;13.20;8.15;;;4.90;99.90;;;3.80;100.00;96977.81;5089919;28;20479;-69
2022/11/28 04:49:03;;;;;;;10.15;6.72;;;5.00;99.90;;;3.81;100.00;96987.25;5110448;22;20518;-73
2022/11/28 04:51:41;;;;;;;14.68;7.78;;;5.00;99.90;;;3.76;100.00;96992.34;5127983;27;20478;-74
2022/11/28 04:54:16;;;;;;;14.50;7.60;;;4.90;99.90;;;3.79;100.00;96982.22;5122879;27;20430;-75
2022/11/28 04:56:48;;;;;;;11.60;7.25;;;5.00;99.90;;;3.82;100.00;96988.88;5109665;28;20858;-75
2022/11/28 04:59:15;;;;;;;12.15;6.28;;;5.00;99.90;;;3.79;100.00;96997.13;5097446;28;20409;-75
2022/11/28 05:01:44;;;;;;;13.20;8.43;;;5.00;99.90;;;3.82;100.00;96989.66;5084785;28;20907;-75
2022/11/28 05:04:12;;;;;;;11.85;7.32;;;5.00;99.90;;;3.80;100.00;96989.06;5087560;28;20528;-75
2022/11/28 05:06:40;;;;;;;11.15;7.18;;;5.00;99.90;;;3.76;100.00;96979.28;5088563;28;20431;-75
2022/11/28 05:09:06;;;;;;;10.63;6.60;;;4.90;99.90;;;3.72;100.00;96985.94;5089087;28;20798;-75
2022/11/28 05:11:32;;;;;;;13.65;7.93;;;4.90;99.90;;;3.64;100.00;96987.03;5088918;28;20421;-75
2022/11/28 05:13:57;;;;;;;13.45;7.00;;;4.90;99.90;;;3.58;100.00;96993.13;5088298;28;20421;-75
2022/11/28 05:16:23;;;;;;;12.70;7.23;;;4.80;99.90;;;3.52;100.00;96993.19;5089402;28;20409;-75
2022/11/28 05:18:49;;;;;;;13.45;6.82;;;4.70;99.90;;;3.50;100.00;96988.97;5088737;28;20394;-75
2022/11/28 05:21:15;;;;;;;11.15;5.40;;;4.70;99.90;;;3.48;100.00;96990.19;5088631;28;20414;-75
2022/11/28 05:23:44;;;;;;;14.25;8.05;;;4.70;99.90;;;3.55;100.00;96990.13;5088073;28;20409;-75
2022/11/28 05:26:13;;;;;;;13.77;7.83;;;4.70;99.90;;;3.46;100.00;96995.63;5087848;28;20740;-74
2022/11/28 05:28:42;;;;;;;13.77;7.93;;;4.60;99.90;;;3.54;100.00;96994.56;5088352;28;20737;-75
2022/11/28 05:31:08;;;;;;;14.50;7.95;;;4.70;99.90;;;3.57;100.00;96996.75;5088699;28;20413;-75
2022/11/28 05:33:33;;;;;;;16.58;7.90;;;4.70;99.90;;;3.49;100.00;97002.25;5087951;28;20775;-75
2022/11/28 05:36:03;;;;;;;14.77;8.18;;;4.70;99.90;;;3.44;100.00;97009.97;5088590;28;20413;-75
2022/11/28 05:38:31;;;;;;;11.15;6.93;;;4.70;99.90;;;3.50;100.00;97009.09;5088780;28;20482;-75
2022/11/28 05:40:58;;;;;;;14.35;7.45;;;4.70;99.90;;;3.53;100.00;97013.91;5088765;28;20394;-75
2022/11/28 05:43:24;;;;;;;11.73;7.07;;;4.70;99.90;;;3.53;100.00;97006.06;5087744;28;20394;-75
2022/11/28 05:45:50;;;;;;;12.35;7.78;;;4.70;99.90;;;3.58;100.00;97014.06;5088715;28;20436;-75
2022/11/28 05:48:16;;;;;;;12.68;8.18;;;4.80;99.90;;;3.67;100.00;97018.00;5087341;28;20422;-75
2022/11/28 05:50:42;;;;;;;12.40;7.65;;;4.80;99.90;;;3.72;100.00;97022.59;5085183;28;20448;-75
2022/11/28 05:53:09;;;;;;;11.38;7.15;;;4.90;99.90;;;3.67;100.00;97014.59;5082986;28;20908;-75
2022/11/28 05:55:37;;;;;;;13.38;7.18;;;4.90;99.90;;;3.61;100.00;97012.84;5086988;28;20418;-75
2022/11/28 05:58:05;;;;;;;13.73;7.22;;;4.80;99.90;;;3.64;100.00;97028.09;5088476;28;20840;-75
2022/11/28 06:00:31;;;;;;;10.88;6.93;;;4.80;99.90;;;3.59;100.00;97015.66;5088503;28;20883;-75
2022/11/28 06:02:57;;;;;;;11.32;7.10;;;4.80;99.90;;;3.59;100.00;97007.81;5069598;28;20871;-75
2022/11/28 06:05:23;;;;;;;14.02;7.40;;;4.80;99.90;;;3.61;100.00;97005.75;5070328;28;20489;-74
2022/11/28 06:07:49;;;;;;;13.88;7.68;;;4.80;99.90;;;3.58;100.00;97002.78;5088571;28;20442;-74
2022/11/28 06:10:16;;;;;;;12.10;7.55;;;4.80;99.90;;;3.53;100.00;96994.81;5088333;28;20437;-74
2022/11/28 06:12:41;;;;;;;11.20;6.90;;;4.70;99.90;;;3.49;100.00;97007.50;5090774;28;20413;-74
2022/11/28 06:15:10;;;;;;;12.02;7.13;;;4.70;99.90;;;3.40;100.00;97009.59;5092134;28;20414;-74
2022/11/28 06:17:36;;;;;;;11.93;6.90;;;4.60;99.90;;;3.40;100.00;97006.16;5092201;28;20405;-74
2022/11/28 06:20:03;;;;;;;8.63;5.90;;;4.60;99.90;;;3.39;100.00;97010.59;5092285;28;20489;-74
2022/11/28 06:22:29;;;;;;;13.20;7.22;;;4.60;99.90;;;3.38;100.00;97009.00;5092162;28;20402;-73
2022/11/28 06:24:55;;;;;;;12.20;7.20;;;4.60;99.90;;;3.37;100.00;97012.66;5091506;28;20390;-73
2022/11/28 06:27:21;;;;;;;12.05;7.25;;;4.60;99.90;;;3.37;100.00;97011.84;5092216;28;20465;-73
2022/11/28 06:29:47;;;;;;;13.35;7.90;;;4.60;99.90;;;3.36;100.00;97015.47;5092172;28;20878;-74
2022/11/28 06:32:14;;;;;;;22.57;10.57;;;4.60;99.90;;;3.34;100.00;97017.50;5092016;28;20481;-74
2022/11/28 06:34:40;;;;;;;15.88;9.43;;;4.60;99.90;;;3.32;100.00;97015.09;5091324;28;20523;-73
2022/11/28 06:37:06;;;;;;;14.00;9.23;;;4.50;99.90;;;3.25;100.00;97022.19;5073713;28;20405;-73
2022/11/28 06:39:32;;;;;;;16.50;9.23;;;4.50;99.90;;;3.27;100.00;97019.34;5091445;28;20414;-74
2022/11/28 06:41:58;;;;;;;15.55;8.88;;;4.50;99.90;;;3.26;100.00;97023.78;5091393;28;20405;-74
2022/11/28 06:44:23;;;;;;;16.03;9.10;;;4.50;99.90;;;3.27;100.00;97021.97;5085304;28;20402;-74
2022/11/28 06:46:49;;;;;;;15.68;9.77;;;4.50;99.90;;;3.25;100.00;97019.56;5091308;28;20402;-74
2022/11/28 06:49:17;;;;;;;15.45;9.63;;;4.50;99.90;;;3.22;100.00;97017.41;5080357;28;20955;-75
2022/11/28 06:51:44;;;;;;;14.65;9.15;;;4.40;99.90;;;3.20;100.00;97010.78;5074619;28;20407;-75
2022/11/28 06:54:10;;;;;;;16.20;9.40;;;4.40;99.90;;;3.19;100.00;97006.53;5086362;28;20422;-75
2022/11/28 06:56:38;;;;;;;14.73;9.77;;;4.40;99.90;;;3.21;100.00;97010.56;5078902;28;20411;-74
2022/11/28 06:59:04;;;;;;;18.30;10.35;;;4.40;99.90;;;3.20;100.00;97005.53;5078272;28;20445;-74
2022/11/28 07:01:31;;;;;;;19.08;9.93;;;4.50;99.90;;;3.18;100.00;97004.94;5083340;28;20422;-74
2022/11/28 07:03:57;;;;;;;15.60;9.52;;;4.40;99.90;;;3.15;100.00;97013.22;5086893;28;20828;-74
2022/11/28 07:06:26;;;;;;;18.83;10.52;;;4.40;99.90;;;3.13;100.00;97023.09;5076963;28;20808;-74
2022/11/28 07:08:55;;;;;;;19.60;10.40;;;4.40;99.90;;;3.13;100.00;97021.28;5080760;28;20536;-74
2022/11/28 07:11:23;;;;;;;16.38;9.57;;;4.30;99.90;;;3.16;100.00;97014.84;5084868;28;20578;-73
2022/11/28 07:13:50;;;;;;;15.93;9.83;;;4.40;99.90;;;3.17;100.00;97011.19;5073281;28;20491;-72
2022/11/28 07:16:20;;;;;;;22.67;10.90;;;4.40;99.90;;;3.18;100.00;97013.59;5086044;28;20798;-72
2022/11/28 07:18:46;;;;;;;15.60;9.75;;;4.40;99.90;;;3.19;100.00;97028.28;5079681;28;20469;-72
2022/11/28 07:21:13;;;;;;;17.63;9.70;;;4.40;99.90;;;3.17;100.00;97029.50;5077980;28;20396;-72
2022/11/28 07:23:42;;;;;;;16.08;9.18;;;4.40;99.90;;;3.23;100.00;97037.31;5086159;28;20446;-72
2022/11/28 07:26:11;;;;;;;16.02;8.30;;;4.40;99.90;;;3.23;100.00;97031.28;5086916;28;20428;-72
2022/11/28 07:28:37;;;;;;;13.77;7.97;;;4.50;99.90;;;3.31;100.00;97034.41;5078051;28;20440;-72
2022/11/28 07:31:09;;;;;;;14.25;7.18;;;4.50;99.90;;;3.34;100.00;97031.38;5078992;28;20411;-72
2022/11/28 07:33:36;;;;;;;13.48;7.32;;;4.60;99.90;;;3.38;100.00;97040.38;5085443;28;20398;-73
2022/11/28 07:36:03;;;;;;;10.93;7.00;;;4.60;99.90;;;3.40;100.00;97033.13;5073004;28;20909;-72
2022/11/28 07:38:30;;;;;;;10.65;6.88;;;4.60;99.90;;;3.45;100.00;97038.53;5089976;28;20453;-72
2022/11/28 07:41:03;;;;;;;10.40;5.80;;;4.60;99.90;;;3.47;100.00;97035.69;5090385;28;20409;-72
2022/11/28 07:43:29;;;;;;;12.05;7.45;;;4.70;99.90;;;3.52;100.00;97032.44;5074357;28;20505;-72
2022/11/28 07:45:55;;;;;;;13.85;7.57;;;4.70;99.90;;;3.53;100.00;97028.81;5087322;28;20795;-72
2022/11/28 07:48:23;;;;;;;16.67;8.07;;;4.70;99.90;;;3.56;100.00;97033.59;5088565;28;20395;-72
2022/11/28 07:50:49;;;;;;;16.23;9.23;;;4.70;99.90;;;3.57;100.00;97028.16;5088658;28;20750;-72
2022/11/28 07:53:15;;;;;;;14.90;8.13;;;4.80;99.90;;;3.58;100.00;97035.00;5084899;28;20447;-72
2022/11/28 07:55:41;;;;;;;11.60;8.00;;;4.80;99.90;;;3.61;100.00;97031.94;5087676;28;20423;-72
2022/11/28 07:58:08;;;;;;;12.27;7.60;;;4.80;99.90;;;3.64;100.00;97026.28;5086275;28;20402;-72
2022/11/28 08:00:34;;;;;;;12.13;7.63;;;4.80;99.90;;;3.66;100.00;97023.44;5086437;28;20415;-71
2022/11/28 08:03:00;;;;;;;14.45;8.40;;;4.80;99.90;;;3.71;100.00;97032.25;5083008;28;20417;-72
2022/11/28 08:05:26;;;;;;;17.60;9.63;;;4.90;99.90;;;3.70;100.00;97028.03;5084745;28;20771;-72
2022/11/28 08:07:52;;;;;;;14.75;8.80;;;4.90;99.90;;;3.75;100.00;97028.19;5090323;28;20394;-72
2022/11/28 08:10:18;;;;;;;18.80;9.50;;;4.90;99.90;;;3.80;100.00;97041.44;5087649;28;20884;-72
2022/11/28 08:12:44;;;;;;;15.45;8.77;;;4.90;99.90;;;3.83;100.00;97029.75;5064694;28;20783;-73
2022/11/28 08:15:11;;;;;;;14.15;8.35;;;5.00;99.90;;;3.87;100.00;97028.28;5087248;28;20406;-73
2022/11/28 08:17:37;;;;;;;19.20;10.00;;;5.00;99.90;;;3.88;100.00;97024.63;5088854;28;20417;-73
2022/11/28 08:20:05;;;;;;;15.67;9.27;;;5.00;99.90;;;3.93;100.00;97030.00;5084854;28;20504;-73
2022/11/28 08:22:31;;;;;;;14.75;9.50;;;5.10;99.90;;;3.99;100.00;97033.56;5087810;28;20866;-73
2022/11/28 08:24:57;;;;;;;18.38;8.93;;;5.10;99.90;;;4.05;100.00;97037.97;5075309;28;20414;-73
2022/11/28 08:27:23;;;;;;;13.40;7.30;;;5.20;99.90;;;4.06;100.00;97037.72;5077162;28;20495;-73
2022/11/28 08:29:50;;;;;;;11.75;6.40;;;5.20;99.90;;;4.13;100.00;97035.06;5085635;28;20433;-72
2022/11/28 08:32:17;;;;;;;9.85;5.05;;;5.30;99.90;;;4.12;100.00;97034.25;5080801;28;20475;-72
2022/11/28 08:34:43;;;;;;;8.30;4.50;;;5.30;99.90;;;4.28;100.00;97033.66;5084044;28;20441;-72
2022/11/28 08:37:09;;;;;;;8.95;4.28;;;5.40;99.90;;;4.48;100.00;97022.13;5087276;28;20449;-74
2022/11/28 08:39:35;;;;;;;8.77;4.30;;;5.70;99.90;;;4.67;100.00;97028.94;5087297;28;20485;-74
2022/11/28 08:42:01;;;;;;;8.85;4.35;;;5.80;99.90;;;4.86;100.00;97021.84;5088923;28;20390;-76
2022/11/28 08:44:27;;;;;;;8.80;4.25;;;6.00;99.90;;;4.93;100.00;97031.22;5088881;28;20887;-75
2022/11/28 08:46:53;;;;;;;8.20;4.03;;;6.10;99.90;;;5.05;100.00;97029.41;5089649;28;20984;-73
2022/11/28 08:49:20;;;;;;;8.60;4.10;;;6.20;99.90;;;5.15;100.00;97030.69;5089429;28;20410;-73
2022/11/28 08:51:46;;;;;;;7.53;3.97;;;6.20;99.90;;;5.14;100.00;97022.00;5089635;28;20429;-74
2022/11/28 08:54:12;;;;;;;7.80;4.43;;;6.30;99.90;;;5.30;100.00;97028.44;5088742;28;20398;-73
2022/11/28 08:56:38;;;;;;;8.10;4.40;;;6.40;99.90;;;5.34;100.00;97024.31;5089467;28;20822;-73
2022/11/28 08:59:05;;;;;;;8.50;4.00;;;6.40;99.90;;;5.43;100.00;97017.72;5089295;28;20530;-73
2022/11/28 09:01:32;;;;;;;10.57;4.07;;;6.50;99.90;;;5.42;100.00;97027.41;5089488;28;20776;-73
2022/11/28 09:03:57;;;;;;;6.40;3.70;;;6.50;99.90;;;5.47;100.00;97029.38;5088466;28;20398;-73
2022/11/28 09:06:25;;;;;;;6.77;4.10;;;6.50;99.90;;;5.48;100.00;97023.09;5071325;28;20748;-73
2022/11/28 09:08:52;;;;;;;8.65;4.10;;;6.50;99.90;;;5.51;100.00;97034.94;5089118;28;20394;-73
2022/11/28 09:11:21;;;;;;;7.63;4.07;;;6.60;99.90;;;5.47;100.00;97024.13;5088358;28;20398;-73
2022/11/28 09:13:47;;;;;;;7.77;3.97;;;6.60;99.90;;;5.56;100.00;97028.03;5086925;28;20779;-73
2022/11/28 09:16:14;;;;;;;8.35;3.95;;;6.60;99.90;;;5.61;100.00;97022.06;5089113;28;20904;-76
2022/11/28 09:18:40;;;;;;;6.40;4.03;;;6.70;99.90;;;5.63;100.00;97009.53;5088891;28;20406;-76
2022/11/28 09:21:10;;;;;;;7.40;4.03;;;6.70;99.90;;;5.84;100.00;97016.81;5088976;28;20398;-78
2022/11/28 09:23:39;;;;;;;6.82;3.70;;;6.80;99.90;;;5.79;100.00;97024.56;5087456;28;20410;-75
2022/11/28 09:26:08;;;;;;;7.13;4.35;;;6.80;99.90;;;5.70;100.00;97026.75;5087824;28;20394;-76
2022/11/28 09:28:34;;;;;;;9.10;3.90;;;6.80;99.90;;;5.75;100.00;97029.50;5088182;28;20760;-77
2022/11/28 09:31:01;;;;;;;10.10;4.03;;;6.80;99.90;;;5.71;100.00;97041.47;5086925;28;20412;-77
2022/11/28 09:33:27;;;;;;;7.72;3.88;;;6.80;99.90;;;5.82;100.00;97040.69;5087710;28;20455;-77
2022/11/28 09:35:54;;;;;;;9.18;4.00;;;6.90;99.90;;;5.78;100.00;97049.25;5088354;28;20406;-77
2022/11/28 09:38:20;;;;;;;5.72;3.70;;;6.90;99.90;;;5.88;100.00;97049.50;5088206;28;20398;-77
2022/11/28 09:40:48;;;;;;;6.57;3.60;;;6.90;99.90;;;5.85;100.00;97052.56;5088223;28;20405;-77
2022/11/28 09:43:29;;;;;;;6.28;3.60;;;7.00;99.90;;;5.87;100.00;97045.22;5069795;28;20398;-78
2022/11/28 09:45:58;;;;;;;6.22;3.70;;;7.00;99.90;;;5.94;100.00;97040.69;5086812;28;20406;-78
2022/11/28 09:48:29;;;;;;;5.88;3.33;;;7.00;99.90;;;5.99;100.00;97038.19;5092321;28;20426;-78
2022/11/28 09:51:01;;;;;;;7.78;4.00;;;7.00;99.90;;;5.98;100.00;97036.59;5092515;28;20413;-77
2022/11/28 09:53:35;;;;;;;7.07;4.03;;;7.00;99.90;;;5.96;100.00;97024.72;5089368;28;20531;-76
2022/11/28 09:56:10;;;;;;;5.90;3.50;;;7.00;99.90;;;6.03;100.00;97020.94;5093000;28;20417;-76
2022/11/28 09:58:44;;;;;;;7.03;3.70;;;7.10;99.90;;;6.06;100.00;97017.06;5095253;22;20427;-76
2022/11/28 10:01:20;;;;;;;7.18;3.80;;;7.10;99.90;;;6.05;100.00;97013.63;5054476;28;20407;-76
2022/11/28 10:03:54;;;;;;;8.52;3.92;;;7.10;99.90;;;6.05;100.00;97018.88;5071856;28;20400;-76
2022/11/28 10:06:27;;;;;;;5.65;3.70;;;7.20;99.90;;;6.13;100.00;97018.53;5072534;28;20391;-76
2022/11/28 10:09:24;;;;;;;7.97;3.60;;;7.20;99.90;;;6.22;100.00;97026.84;5072528;28;20771;-76
2022/11/28 10:12:06;;;;;;;7.70;3.58;;;7.20;99.90;;;6.33;100.00;97035.72;5063028;28;20534;-76
2022/11/28 10:14:55;;;;;;;6.20;3.35;;;7.30;99.90;;;6.35;100.00;97033.66;5064194;28;20422;-77
2022/11/28 10:17:36;;;;;;;5.75;2.97;;;7.40;99.90;;;6.37;100.00;97035.03;5053838;28;20413;-77
2022/11/28 10:20:09;;;;;;;4.85;3.10;;;7.40;99.90;;;6.39;100.00;97042.69;5052153;28;20393;-77
2022/11/28 10:22:43;;;;;;;4.72;2.83;;;7.40;99.90;;;6.40;100.00;97034.56;5052234;28;20944;-77
2022/11/28 10:25:16;;;;;;;7.68;3.22;;;7.40;99.90;;;6.42;100.00;97040.41;5051965;28;20390;-77
2022/11/28 10:27:46;;;;;;;8.25;4.40;;;7.40;99.90;;;6.44;100.00;97038.34;5052471;28;20409;-77
2022/11/28 10:30:21;;;;;;;7.10;4.57;;;7.50;99.90;;;6.47;100.00;97034.44;5051772;28;20401;-77